Terminal Aerodrome Forecast
Issued by NWS

Current Version | Previous Version | Text Only | Print | Product List | Glossary On
Versions: 1 2 3 4 5 6 7 8 9 10 11 12 13 14 15 16 17 18 19 20 21 22 23 24 25
000
FTUS41 KALY 271012 AAB
TAFPSF
TAF AMD
KPSF 271012Z 2710/2806 29010KT 3SM -SN SCT006 OVC015
      TEMPO 2710/2713 1SM -SN BR BKN006
     FM271300 31008KT P6SM BKN015 OVC030
     FM271600 32010G18KT P6SM VCSH OVC035
     FM280000 31006KT P6SM SCT035 OVC100=

USA.gov is the U.S. government's official web portal to all federal, state and local government web resources and services.